Terminal Aerodrome Forecast
Issued by NWS

Home | Current Version | Previous Version | Text Only | Print | Product List | Glossary On
Versions: 1 2 3 4 5 6 7 8 9 10 11 12 13 14 15 16 17 18 19 20 21 22 23 24
962
FTUS43 KAPX 171553 AAA
TAFAPN
TAF AMD
KAPN 171553Z 1716/1812 13010G18KT P6SM -SHRA OVC012
      TEMPO 1716/1718 1 1/2SM TSRA OVC012CB
     FM172100 16005KT P6SM -SHRA VCTS BKN010CB
     FM180300 17006KT P6SM VCSH OVC050
     FM180600 20007KT P6SM OVC025
     FM181000 21007KT P6SM VCSH OVC015=

USA.gov is the U.S. government's official web portal to all federal, state and local government web resources and services.